sensor_id;sensor_type;location;lat;lon;timestamp;pressure;altitude;pressure_sealevel;temperature;humidity
19748;BME280;10032;51.386;12.516;2023-04-08T00:01:52;100609.97;;;7.26;100.00
19748;BME280;10032;51.386;12.516;2023-04-08T00:04:18;100609.38;;;7.24;100.00
19748;BME280;10032;51.386;12.516;2023-04-08T00:06:43;100613.34;;;7.21;100.00
19748;BME280;10032;51.386;12.516;2023-04-08T00:09:08;100610.00;;;7.19;100.00
19748;BME280;10032;51.386;12.516;2023-04-08T00:11:34;100599.91;;;7.15;100.00
19748;BME280;10032;51.386;12.516;2023-04-08T00:14:02;100598.44;;;7.19;100.00
19748;BME280;10032;51.386;12.516;2023-04-08T00:16:28;100601.50;;;7.22;100.00
19748;BME280;10032;51.386;12.516;2023-04-08T00:18:53;100603.59;;;7.20;100.00
19748;BME280;10032;51.386;12.516;2023-04-08T00:21:18;100603.59;;;7.20;100.00
19748;BME280;10032;51.386;12.516;2023-04-08T00:23:46;100607.56;;;7.18;100.00
19748;BME280;10032;51.386;12.516;2023-04-08T00:26:11;100597.81;;;7.17;100.00
19748;BME280;10032;51.386;12.516;2023-04-08T00:28:37;100598.66;;;7.11;100.00
19748;BME280;10032;51.386;12.516;2023-04-08T00:31:02;100592.47;;;7.10;100.00
19748;BME280;10032;51.386;12.516;2023-04-08T00:33:28;100597.88;;;7.10;100.00
19748;BME280;10032;51.386;12.516;2023-04-08T00:35:53;100599.06;;;7.14;100.00
19748;BME280;10032;51.386;12.516;2023-04-08T00:38:19;100597.63;;;7.12;100.00
19748;BME280;10032;51.386;12.516;2023-04-08T00:40:45;100601.16;;;7.12;100.00
19748;BME280;10032;51.386;12.516;2023-04-08T00:43:10;100605.94;;;7.10;100.00
19748;BME280;10032;51.386;12.516;2023-04-08T00:45:36;100608.00;;;7.08;100.00
19748;BME280;10032;51.386;12.516;2023-04-08T00:48:03;100604.09;;;7.04;100.00
19748;BME280;10032;51.386;12.516;2023-04-08T00:50:28;100610.50;;;7.10;100.00
19748;BME280;10032;51.386;12.516;2023-04-08T00:52:54;100608.84;;;7.09;100.00
19748;BME280;10032;51.386;12.516;2023-04-08T00:55:19;100602.03;;;7.06;100.00
19748;BME280;10032;51.386;12.516;2023-04-08T00:57:45;100599.94;;;7.08;100.00
19748;BME280;10032;51.386;12.516;2023-04-08T01:00:29;100599.53;;;7.05;100.00
19748;BME280;10032;51.386;12.516;2023-04-08T01:06:09;100596.81;;;7.11;100.00
19748;BME280;10032;51.386;12.516;2023-04-08T01:08:38;100599.50;;;7.11;100.00
19748;BME280;10032;51.386;12.516;2023-04-08T01:11:09;100595.75;;;7.19;100.00
19748;BME280;10032;51.386;12.516;2023-04-08T01:13:39;100603.44;;;7.15;100.00
19748;BME280;10032;51.386;12.516;2023-04-08T01:16:07;100602.81;;;7.13;100.00
19748;BME280;10032;51.386;12.516;2023-04-08T01:18:35;100606.34;;;7.14;100.00
19748;BME280;10032;51.386;12.516;2023-04-08T01:21:02;100607.81;;;7.10;100.00
19748;BME280;10032;51.386;12.516;2023-04-08T01:24:00;100610.31;;;7.05;100.00
19748;BME280;10032;51.386;12.516;2023-04-08T01:26:30;100603.06;;;7.05;100.00
19748;BME280;10032;51.386;12.516;2023-04-08T01:28:58;100607.41;;;7.06;100.00
19748;BME280;10032;51.386;12.516;2023-04-08T01:31:25;100604.94;;;7.05;100.00
19748;BME280;10032;51.386;12.516;2023-04-08T01:33:52;100605.59;;;7.00;100.00
19748;BME280;10032;51.386;12.516;2023-04-08T01:36:19;100607.03;;;6.96;100.00
19748;BME280;10032;51.386;12.516;2023-04-08T01:38:46;100609.94;;;6.95;100.00
19748;BME280;10032;51.386;12.516;2023-04-08T01:41:12;100607.25;;;6.95;100.00
19748;BME280;10032;51.386;12.516;2023-04-08T01:43:38;100616.16;;;6.95;100.00
19748;BME280;10032;51.386;12.516;2023-04-08T01:46:06;100611.66;;;6.89;100.00
19748;BME280;10032;51.386;12.516;2023-04-08T01:48:34;100623.63;;;6.93;100.00
19748;BME280;10032;51.386;12.516;2023-04-08T01:51:00;100612.66;;;6.88;100.00
19748;BME280;10032;51.386;12.516;2023-04-08T01:53:27;100603.34;;;6.91;100.00
19748;BME280;10032;51.386;12.516;2023-04-08T01:55:57;100597.94;;;6.91;100.00
19748;BME280;10032;51.386;12.516;2023-04-08T01:58:26;100594.06;;;6.87;100.00
19748;BME280;10032;51.386;12.516;2023-04-08T02:00:56;100592.16;;;6.87;100.00
19748;BME280;10032;51.386;12.516;2023-04-08T02:03:23;100598.56;;;6.93;100.00
19748;BME280;10032;51.386;12.516;2023-04-08T02:05:49;100599.38;;;6.93;100.00
19748;BME280;10032;51.386;12.516;2023-04-08T02:08:15;100595.22;;;6.97;100.00
19748;BME280;10032;51.386;12.516;2023-04-08T02:10:40;100596.66;;;7.00;100.00
19748;BME280;10032;51.386;12.516;2023-04-08T02:13:06;100600.81;;;6.96;100.00
19748;BME280;10032;51.386;12.516;2023-04-08T02:15:35;100604.75;;;6.93;100.00
19748;BME280;10032;51.386;12.516;2023-04-08T02:18:10;100592.34;;;6.92;100.00
19748;BME280;10032;51.386;12.516;2023-04-08T02:20:42;100601.47;;;6.91;100.00
19748;BME280;10032;51.386;12.516;2023-04-08T02:23:16;100598.78;;;6.91;100.00
19748;BME280;10032;51.386;12.516;2023-04-08T02:25:44;100609.16;;;6.88;100.00
19748;BME280;10032;51.386;12.516;2023-04-08T02:28:12;100604.19;;;6.85;100.00
19748;BME280;10032;51.386;12.516;2023-04-08T02:30:48;100604.19;;;6.85;100.00
19748;BME280;10032;51.386;12.516;2023-04-08T02:33:18;100599.19;;;6.88;100.00
19748;BME280;10032;51.386;12.516;2023-04-08T02:35:46;100605.03;;;6.85;100.00
19748;BME280;10032;51.386;12.516;2023-04-08T02:38:12;100614.97;;;6.85;100.00
19748;BME280;10032;51.386;12.516;2023-04-08T02:40:37;100611.47;;;6.84;100.00
19748;BME280;10032;51.386;12.516;2023-04-08T02:43:03;100610.41;;;6.85;100.00
19748;BME280;10032;51.386;12.516;2023-04-08T02:45:30;100615.81;;;6.85;100.00
19748;BME280;10032;51.386;12.516;2023-04-08T02:47:57;100609.56;;;6.91;100.00
19748;BME280;10032;51.386;12.516;2023-04-08T02:50:23;100608.91;;;6.96;100.00
19748;BME280;10032;51.386;12.516;2023-04-08T02:52:48;100615.34;;;6.95;100.00
19748;BME280;10032;51.386;12.516;2023-04-08T02:55:14;100618.69;;;6.90;100.00
19748;BME280;10032;51.386;12.516;2023-04-08T02:57:40;100614.75;;;6.86;100.00
19748;BME280;10032;51.386;12.516;2023-04-08T03:00:06;100625.53;;;6.86;100.00
19748;BME280;10032;51.386;12.516;2023-04-08T03:02:32;100619.31;;;6.86;100.00
19748;BME280;10032;51.386;12.516;2023-04-08T03:04:58;100617.03;;;6.89;100.00
19748;BME280;10032;51.386;12.516;2023-04-08T03:07:24;100618.69;;;6.90;100.00
19748;BME280;10032;51.386;12.516;2023-04-08T03:09:49;100614.94;;;6.91;100.00
19748;BME280;10032;51.386;12.516;2023-04-08T03:12:15;100614.75;;;6.86;100.00
19748;BME280;10032;51.386;12.516;2023-04-08T03:14:41;100621.78;;;6.87;100.00
19748;BME280;10032;51.386;12.516;2023-04-08T03:17:06;100620.31;;;6.91;100.00
19748;BME280;10032;51.386;12.516;2023-04-08T03:19:31;100623.03;;;6.91;100.00
19748;BME280;10032;51.386;12.516;2023-04-08T03:21:57;100619.31;;;6.86;100.00
19748;BME280;10032;51.386;12.516;2023-04-08T03:24:22;100625.34;;;6.81;100.00
19748;BME280;10032;51.386;12.516;2023-04-08T03:26:48;100626.38;;;6.80;100.00
19748;BME280;10032;51.386;12.516;2023-04-08T03:29:13;100627.44;;;6.79;100.00
19748;BME280;10032;51.386;12.516;2023-04-08T03:31:39;100627.22;;;6.81;100.00
19748;BME280;10032;51.386;12.516;2023-04-08T03:34:04;100634.28;;;6.75;100.00
19748;BME280;10032;51.386;12.516;2023-04-08T03:36:29;100632.63;;;6.74;100.00
19748;BME280;10032;51.386;12.516;2023-04-08T03:38:55;100639.06;;;6.73;100.00
19748;BME280;10032;51.386;12.516;2023-04-08T03:41:20;100643.41;;;6.74;100.00
19748;BME280;10032;51.386;12.516;2023-04-08T03:43:46;100644.00;;;6.76;100.00
19748;BME280;10032;51.386;12.516;2023-04-08T03:46:11;100641.75;;;6.73;100.00
19748;BME280;10032;51.386;12.516;2023-04-08T03:48:36;100629.56;;;6.64;100.00
19748;BME280;10032;51.386;12.516;2023-04-08T03:51:02;100630.16;;;6.66;100.00
19748;BME280;10032;51.386;12.516;2023-04-08T03:53:28;100633.47;;;6.68;100.00
19748;BME280;10032;51.386;12.516;2023-04-08T03:55:54;100638.22;;;6.73;100.00
19748;BME280;10032;51.386;12.516;2023-04-08T03:58:20;100639.88;;;6.74;100.00
19748;BME280;10032;51.386;12.516;2023-04-08T04:00:45;100639.06;;;6.73;100.00
19748;BME280;10032;51.386;12.516;2023-04-08T04:03:11;100635.31;;;6.74;100.00
19748;BME280;10032;51.386;12.516;2023-04-08T04:05:40;100640.72;;;6.74;100.00
19748;BME280;10032;51.386;12.516;2023-04-08T04:08:05;100637.56;;;6.77;100.00
19748;BME280;10032;51.386;12.516;2023-04-08T04:10:31;100637.38;;;6.79;100.00
19748;BME280;10032;51.386;12.516;2023-04-08T04:12:57;100654.75;;;6.83;100.00
19748;BME280;10032;51.386;12.516;2023-04-08T04:15:22;100649.19;;;6.78;100.00
19748;BME280;10032;51.386;12.516;2023-04-08T04:17:48;100656.66;;;6.76;100.00
19748;BME280;10032;51.386;12.516;2023-04-08T04:20:17;100658.09;;;6.78;100.00
19748;BME280;10032;51.386;12.516;2023-04-08T04:22:42;100656.22;;;6.79;100.00
19748;BME280;10032;51.386;12.516;2023-04-08T04:25:09;100660.13;;;6.83;100.00
19748;BME280;10032;51.386;12.516;2023-04-08T04:27:34;100660.94;;;6.83;100.00
19748;BME280;10032;51.386;12.516;2023-04-08T04:30:01;100657.66;;;6.81;100.00
19748;BME280;10032;51.386;12.516;2023-04-08T04:32:26;100665.13;;;6.79;100.00
19748;BME280;10032;51.386;12.516;2023-04-08T04:34:52;100659.31;;;6.82;100.00
19748;BME280;10032;51.386;12.516;2023-04-08T04:37:17;100668.81;;;6.85;100.00
19748;BME280;10032;51.386;12.516;2023-04-08T04:39:43;100669.66;;;6.85;100.00
19748;BME280;10032;51.386;12.516;2023-04-08T04:42:08;100675.25;;;6.84;100.00
19748;BME280;10032;51.386;12.516;2023-04-08T04:44:34;100674.25;;;6.78;100.00
19748;BME280;10032;51.386;12.516;2023-04-08T04:46:59;100662.03;;;6.76;100.00
19748;BME280;10032;51.386;12.516;2023-04-08T04:49:25;100663.47;;;6.78;100.00
19748;BME280;10032;51.386;12.516;2023-04-08T04:51:50;100665.34;;;6.78;100.00
19748;BME280;10032;51.386;12.516;2023-04-08T04:54:16;100660.34;;;6.81;100.00
19748;BME280;10032;51.386;12.516;2023-04-08T04:56:41;100670.50;;;6.79;100.00
19748;BME280;10032;51.386;12.516;2023-04-08T04:59:07;100676.28;;;6.83;100.00
19748;BME280;10032;51.386;12.516;2023-04-08T05:01:33;100678.16;;;6.82;100.00
19748;BME280;10032;51.386;12.516;2023-04-08T05:03:58;100679.00;;;6.83;100.00
19748;BME280;10032;51.386;12.516;2023-04-08T05:06:24;100683.31;;;6.84;100.00
19748;BME280;10032;51.386;12.516;2023-04-08T05:08:50;100686.63;;;6.86;100.00
19748;BME280;10032;51.386;12.516;2023-04-08T05:11:16;100690.16;;;6.86;100.00
19748;BME280;10032;51.386;12.516;2023-04-08T05:13:43;100693.25;;;6.83;100.00
19748;BME280;10032;51.386;12.516;2023-04-08T05:16:08;100694.53;;;6.81;100.00
19748;BME280;10032;51.386;12.516;2023-04-08T05:18:34;100703.88;;;6.78;100.00
19748;BME280;10032;51.386;12.516;2023-04-08T05:21:01;100701.78;;;6.80;100.00
19748;BME280;10032;51.386;12.516;2023-04-08T05:23:26;100696.19;;;6.82;100.00
19748;BME280;10032;51.386;12.516;2023-04-08T05:25:51;100707.38;;;6.79;100.00
19748;BME280;10032;51.386;12.516;2023-04-08T05:28:17;100699.09;;;6.80;100.00
19748;BME280;10032;51.386;12.516;2023-04-08T05:30:47;100701.19;;;6.78;100.00
19748;BME280;10032;51.386;12.516;2023-04-08T05:33:13;100704.69;;;6.79;100.00
19748;BME280;10032;51.386;12.516;2023-04-08T05:35:38;100708.00;;;6.81;100.00
19748;BME280;10032;51.386;12.516;2023-04-08T05:38:04;100710.50;;;6.76;100.00
19748;BME280;10032;51.386;12.516;2023-04-08T05:40:30;100703.22;;;6.83;100.00
19748;BME280;10032;51.386;12.516;2023-04-08T05:42:56;100716.69;;;6.76;100.00
19748;BME280;10032;51.386;12.516;2023-04-08T05:45:21;100713.16;;;6.82;100.00
19748;BME280;10032;51.386;12.516;2023-04-08T05:47:47;100711.91;;;6.85;100.00
19748;BME280;10032;51.386;12.516;2023-04-08T05:50:12;100711.09;;;6.84;100.00
19748;BME280;10032;51.386;12.516;2023-04-08T05:52:42;100701.78;;;6.87;100.00
19748;BME280;10032;51.386;12.516;2023-04-08T05:55:08;100703.81;;;6.91;100.00
19748;BME280;10032;51.386;12.516;2023-04-08T05:57:34;100710.25;;;6.90;100.00
19748;BME280;10032;51.386;12.516;2023-04-08T05:59:59;100703.63;;;6.86;100.00
19748;BME280;10032;51.386;12.516;2023-04-08T06:02:24;100721.69;;;6.79;100.00
19748;BME280;10032;51.386;12.516;2023-04-08T06:04:50;100715.84;;;6.82;100.00
19748;BME280;10032;51.386;12.516;2023-04-08T06:07:15;100722.69;;;6.85;100.00
19748;BME280;10032;51.386;12.516;2023-04-08T06:09:41;100723.53;;;6.85;100.00
19748;BME280;10032;51.386;12.516;2023-04-08T06:12:06;100728.91;;;6.85;100.00
19748;BME280;10032;51.386;12.516;2023-04-08T06:14:32;100725.38;;;6.85;100.00
19748;BME280;10032;51.386;12.516;2023-04-08T06:16:57;100726.41;;;6.90;100.00
19748;BME280;10032;51.386;12.516;2023-04-08T06:19:22;100736.97;;;6.92;100.00
19748;BME280;10032;51.386;12.516;2023-04-08T06:21:48;100745.06;;;6.92;100.00
19748;BME280;10032;51.386;12.516;2023-04-08T06:24:15;100737.97;;;6.97;100.00
19748;BME280;10032;51.386;12.516;2023-04-08T06:26:41;100740.03;;;7.02;100.00
19748;BME280;10032;51.386;12.516;2023-04-08T06:29:06;100737.97;;;6.97;100.00
19748;BME280;10032;51.386;12.516;2023-04-08T06:31:32;100744.00;;;6.99;100.00
19748;BME280;10032;51.386;12.516;2023-04-08T06:33:57;100758.06;;;7.01;100.00
19748;BME280;10032;51.386;12.516;2023-04-08T06:36:23;100758.72;;;6.97;100.00
19748;BME280;10032;51.386;12.516;2023-04-08T06:38:48;100760.56;;;6.96;100.00
19748;BME280;10032;51.386;12.516;2023-04-08T06:41:13;100760.38;;;6.98;100.00
19748;BME280;10032;51.386;12.516;2023-04-08T06:43:39;100765.72;;;7.04;100.00
19748;BME280;10032;51.386;12.516;2023-04-08T06:46:05;100775.66;;;7.10;100.00
19748;BME280;10032;51.386;12.516;2023-04-08T06:48:30;100772.78;;;7.05;100.00
19748;BME280;10032;51.386;12.516;2023-04-08T06:50:56;100771.53;;;7.01;100.00
19748;BME280;10032;51.386;12.516;2023-04-08T06:53:26;100779.19;;;7.04;100.00
19748;BME280;10032;51.386;12.516;2023-04-08T06:55:53;100775.25;;;7.07;100.00
19748;BME280;10032;51.386;12.516;2023-04-08T06:58:19;100783.56;;;7.05;100.00
19748;BME280;10032;51.386;12.516;2023-04-08T07:00:45;100787.06;;;7.06;100.00
19748;BME280;10032;51.386;12.516;2023-04-08T07:03:11;100780.63;;;7.13;100.00
19748;BME280;10032;51.386;12.516;2023-04-08T07:05:36;100789.94;;;7.11;100.00
19748;BME280;10032;51.386;12.516;2023-04-08T07:08:03;100787.66;;;7.14;100.00
19748;BME280;10032;51.386;12.516;2023-04-08T07:10:28;100787.44;;;7.22;100.00
19748;BME280;10032;51.386;12.516;2023-04-08T07:12:54;100793.44;;;7.24;100.00
19748;BME280;10032;51.386;12.516;2023-04-08T07:15:19;100794.66;;;7.28;100.00
19748;BME280;10032;51.386;12.516;2023-04-08T07:17:45;100792.75;;;7.35;100.00
19748;BME280;10032;51.386;12.516;2023-04-08T07:20:12;100790.25;;;7.40;100.00
19748;BME280;10032;51.386;12.516;2023-04-08T07:22:38;100790.91;;;7.42;100.00
19748;BME280;10032;51.386;12.516;2023-04-08T07:25:04;100793.78;;;7.47;100.00
19748;BME280;10032;51.386;12.516;2023-04-08T07:27:30;100791.69;;;7.49;100.00
19748;BME280;10032;51.386;12.516;2023-04-08T07:29:55;100796.59;;;7.65;100.00
19748;BME280;10032;51.386;12.516;2023-04-08T07:32:22;100801.13;;;7.71;100.00
19748;BME280;10032;51.386;12.516;2023-04-08T07:34:47;100796.56;;;7.72;100.00
19748;BME280;10032;51.386;12.516;2023-04-08T07:37:13;100797.75;;;7.82;100.00
19748;BME280;10032;51.386;12.516;2023-04-08T07:39:38;100799.56;;;7.88;100.00
19748;BME280;10032;51.386;12.516;2023-04-08T07:42:04;100805.38;;;7.92;100.00
19748;BME280;10032;51.386;12.516;2023-04-08T07:44:29;100798.88;;;7.99;100.00
19748;BME280;10032;51.386;12.516;2023-04-08T07:46:54;100803.69;;;7.97;100.00
19748;BME280;10032;51.386;12.516;2023-04-08T07:49:20;100803.84;;;8.02;100.00
19748;BME280;10032;51.386;12.516;2023-04-08T07:51:45;100794.63;;;8.16;100.00
19748;BME280;10032;51.386;12.516;2023-04-08T07:54:11;100806.25;;;8.23;100.00
19748;BME280;10032;51.386;12.516;2023-04-08T07:56:41;100814.75;;;8.20;100.00
19748;BME280;10032;51.386;12.516;2023-04-08T07:59:09;100809.13;;;8.28;100.00
19748;BME280;10032;51.386;12.516;2023-04-08T08:01:34;100803.44;;;8.36;100.00
19748;BME280;10032;51.386;12.516;2023-04-08T08:04:00;100808.97;;;8.48;100.00
19748;BME280;10032;51.386;12.516;2023-04-08T08:06:26;100810.34;;;8.57;100.00
19748;BME280;10032;51.386;12.516;2023-04-08T08:08:52;100813.47;;;8.54;100.00
19748;BME280;10032;51.386;12.516;2023-04-08T08:11:17;100817.59;;;8.56;100.00
19748;BME280;10032;51.386;12.516;2023-04-08T08:13:43;100821.69;;;8.65;100.00
19748;BME280;10032;51.386;12.516;2023-04-08T08:16:09;100829.97;;;8.70;100.00
19748;BME280;10032;51.386;12.516;2023-04-08T08:18:36;100828.25;;;8.76;100.00
19748;BME280;10032;51.386;12.516;2023-04-08T08:21:02;100830.13;;;8.75;100.00
19748;BME280;10032;51.386;12.516;2023-04-08T08:23:28;100836.22;;;8.71;100.00
19748;BME280;10032;51.386;12.516;2023-04-08T08:26:08;100830.72;;;8.77;100.00
19748;BME280;10032;51.386;12.516;2023-04-08T08:28:35;100842.03;;;8.92;100.00
19748;BME280;10032;51.386;12.516;2023-04-08T08:31:00;100836.03;;;8.90;100.00
19748;BME280;10032;51.386;12.516;2023-04-08T08:33:27;100838.50;;;8.92;100.00
19748;BME280;10032;51.386;12.516;2023-04-08T08:35:53;100836.34;;;9.00;100.00
19748;BME280;10032;51.386;12.516;2023-04-08T08:38:19;100833.34;;;9.08;100.00
19748;BME280;10032;51.386;12.516;2023-04-08T08:40:45;100830.13;;;9.18;100.00
19748;BME280;10032;51.386;12.516;2023-04-08T08:43:10;100839.31;;;9.35;100.00
19748;BME280;10032;51.386;12.516;2023-04-08T08:45:42;100836.53;;;9.41;100.00
19748;BME280;10032;51.386;12.516;2023-04-08T08:48:08;100834.97;;;9.52;100.00
19748;BME280;10032;51.386;12.516;2023-04-08T08:50:34;100838.78;;;9.62;100.00
19748;BME280;10032;51.386;12.516;2023-04-08T08:53:00;100845.19;;;9.68;100.00
19748;BME280;10032;51.386;12.516;2023-04-08T08:55:29;100845.47;;;9.60;100.00
19748;BME280;10032;51.386;12.516;2023-04-08T08:57:56;100855.69;;;9.58;100.00
19748;BME280;10032;51.386;12.516;2023-04-08T09:00:35;100856.53;;;9.58;100.00
19748;BME280;10032;51.386;12.516;2023-04-08T09:03:17;100861.03;;;9.64;100.00
19748;BME280;10032;51.386;12.516;2023-04-08T09:11:10;100868.16;;;9.59;100.00
19748;BME280;10032;51.386;12.516;2023-04-08T09:13:37;100874.41;;;9.59;100.00
19748;BME280;10032;51.386;12.516;2023-04-08T09:16:04;100874.41;;;9.59;100.00
19748;BME280;10032;51.386;12.516;2023-04-08T09:18:31;100870.72;;;9.54;100.00
19748;BME280;10032;51.386;12.516;2023-04-08T09:21:00;100880.41;;;9.61;100.00
19748;BME280;10032;51.386;12.516;2023-04-08T09:23:47;100885.22;;;9.59;100.00
19748;BME280;10032;51.386;12.516;2023-04-08T09:26:14;100874.78;;;9.63;100.00
19748;BME280;10032;51.386;12.516;2023-04-08T09:28:41;100881.00;;;9.81;100.00
19748;BME280;10032;51.386;12.516;2023-04-08T09:31:18;100885.28;;;9.89;100.00
19748;BME280;10032;51.386;12.516;2023-04-08T09:33:46;100887.78;;;9.90;100.00
19748;BME280;10032;51.386;12.516;2023-04-08T09:36:13;100891.53;;;9.89;100.00
19748;BME280;10032;51.386;12.516;2023-04-08T09:38:38;100888.97;;;9.94;100.00
19748;BME280;10032;51.386;12.516;2023-04-08T09:41:06;100892.50;;;9.95;100.00
19748;BME280;10032;51.386;12.516;2023-04-08T09:43:35;100893.56;;;9.94;100.00
19748;BME280;10032;51.386;12.516;2023-04-08T09:46:07;100898.13;;;9.93;100.00
19748;BME280;10032;51.386;12.516;2023-04-08T09:48:42;100899.34;;;9.97;100.00
19748;BME280;10032;51.386;12.516;2023-04-08T09:51:14;100899.34;;;9.97;100.00
19748;BME280;10032;51.386;12.516;2023-04-08T09:53:49;100895.53;;;10.05;100.00
19748;BME280;10032;51.386;12.516;2023-04-08T09:56:19;100895.34;;;10.00;100.00
19748;BME280;10032;51.386;12.516;2023-04-08T09:58:51;100898.81;;;10.07;100.00
19748;BME280;10032;51.386;12.516;2023-04-08T10:01:32;100894.19;;;10.14;100.00
19748;BME280;10032;51.386;12.516;2023-04-08T10:04:04;100903.44;;;10.06;100.00
19748;BME280;10032;51.386;12.516;2023-04-08T10:06:33;100904.25;;;10.07;100.00
19748;BME280;10032;51.386;12.516;2023-04-08T10:09:00;100908.44;;;10.03;100.00
19748;BME280;10032;51.386;12.516;2023-04-08T10:11:27;100907.63;;;10.02;100.00
19748;BME280;10032;51.386;12.516;2023-04-08T10:13:54;100908.16;;;9.93;100.00
19748;BME280;10032;51.386;12.516;2023-04-08T10:16:21;100910.03;;;9.92;100.00
19748;BME280;10032;51.386;12.516;2023-04-08T10:18:49;100904.75;;;9.97;100.00
19748;BME280;10032;51.386;12.516;2023-04-08T10:24:02;100904.69;;;10.22;100.00
19748;BME280;10032;51.386;12.516;2023-04-08T10:26:43;100909.81;;;10.41;100.00
19748;BME280;10032;51.386;12.516;2023-04-08T10:31:47;100904.16;;;10.72;100.00
19748;BME280;10032;51.386;12.516;2023-04-08T10:34:25;100908.50;;;10.73;100.00
19748;BME280;10032;51.386;12.516;2023-04-08T10:36:52;100914.28;;;10.65;100.00
19748;BME280;10032;51.386;12.516;2023-04-08T10:39:18;100913.56;;;10.58;100.00
19748;BME280;10032;51.386;12.516;2023-04-08T10:41:51;100916.72;;;10.55;100.00
19748;BME280;10032;51.386;12.516;2023-04-08T10:44:22;100914.72;;;10.62;100.00
19748;BME280;10032;51.386;12.516;2023-04-08T10:46:50;100912.63;;;10.64;100.00
19748;BME280;10032;51.386;12.516;2023-04-08T10:49:16;100913.91;;;10.73;100.00
19748;BME280;10032;51.386;12.516;2023-04-08T10:51:43;100914.94;;;10.90;100.00
19748;BME280;10032;51.386;12.516;2023-04-08T10:54:10;100907.50;;;10.97;100.00
19748;BME280;10032;51.386;12.516;2023-04-08T10:56:43;100918.25;;;11.15;100.00
19748;BME280;10032;51.386;12.516;2023-04-08T10:59:10;100913.78;;;11.21;100.00
19748;BME280;10032;51.386;12.516;2023-04-08T11:01:39;100915.78;;;11.25;100.00
19748;BME280;10032;51.386;12.516;2023-04-08T11:04:16;100919.22;;;11.32;100.00
19748;BME280;10032;51.386;12.516;2023-04-08T11:06:44;100914.03;;;11.31;100.00
19748;BME280;10032;51.386;12.516;2023-04-08T11:09:11;100910.59;;;11.35;100.00
19748;BME280;10032;51.386;12.516;2023-04-08T11:11:36;100917.91;;;11.46;100.00
19748;BME280;10032;51.386;12.516;2023-04-08T11:14:02;100910.94;;;11.39;100.00
19748;BME280;10032;51.386;12.516;2023-04-08T11:16:28;100909.19;;;11.44;100.00
19748;BME280;10032;51.386;12.516;2023-04-08T11:18:54;100907.06;;;11.46;100.00
19748;BME280;10032;51.386;12.516;2023-04-08T11:21:23;100913.19;;;11.53;100.00
19748;BME280;10032;51.386;12.516;2023-04-08T11:23:54;100910.72;;;11.52;100.00
19748;BME280;10032;51.386;12.516;2023-04-08T11:26:20;100906.38;;;11.62;100.00
19748;BME280;10032;51.386;12.516;2023-04-08T11:28:46;100915.81;;;11.60;100.00
19748;BME280;10032;51.386;12.516;2023-04-08T11:31:15;100912.50;;;11.69;100.00
19748;BME280;10032;51.386;12.516;2023-04-08T11:33:48;100911.78;;;11.74;100.00
19748;BME280;10032;51.386;12.516;2023-04-08T11:36:15;100909.91;;;11.74;100.00
19748;BME280;10032;51.386;12.516;2023-04-08T11:38:42;100909.88;;;11.86;100.00
19748;BME280;10032;51.386;12.516;2023-04-08T11:41:08;100911.72;;;11.97;100.00
19748;BME280;10032;51.386;12.516;2023-04-08T11:43:35;100915.72;;;12.06;100.00
19748;BME280;10032;51.386;12.516;2023-04-08T11:46:10;100916.19;;;12.14;100.00
19748;BME280;10032;51.386;12.516;2023-04-08T11:48:37;100912.28;;;12.10;100.00
19748;BME280;10032;51.386;12.516;2023-04-08T11:51:04;100908.53;;;12.00;100.00
19748;BME280;10032;51.386;12.516;2023-04-08T11:53:30;100912.53;;;12.09;100.00
19748;BME280;10032;51.386;12.516;2023-04-08T11:55:55;100906.16;;;12.03;100.00
19748;BME280;10032;51.386;12.516;2023-04-08T11:58:21;100911.25;;;12.11;100.00
19748;BME280;10032;51.386;12.516;2023-04-08T12:00:47;100921.50;;;12.09;100.00
19748;BME280;10032;51.386;12.516;2023-04-08T12:03:13;100918.66;;;12.16;100.00
19748;BME280;10032;51.386;12.516;2023-04-08T12:05:38;100909.56;;;12.10;100.00
19748;BME280;10032;51.386;12.516;2023-04-08T12:08:04;100920.03;;;12.30;100.00
19748;BME280;10032;51.386;12.516;2023-04-08T12:10:30;100925.72;;;12.28;100.00
19748;BME280;10032;51.386;12.516;2023-04-08T12:12:56;100923.09;;;12.33;100.00
19748;BME280;10032;51.386;12.516;2023-04-08T12:15:22;100924.75;;;12.34;100.00
19748;BME280;10032;51.386;12.516;2023-04-08T12:17:47;100925.03;;;12.49;100.00
19748;BME280;10032;51.386;12.516;2023-04-08T12:20:13;100929.63;;;12.49;100.00
19748;BME280;10032;51.386;12.516;2023-04-08T12:22:40;100928.41;;;12.56;100.00
19748;BME280;10032;51.386;12.516;2023-04-08T12:25:05;100920.69;;;12.48;100.00
19748;BME280;10032;51.386;12.516;2023-04-08T12:27:31;100928.31;;;12.51;100.00
19748;BME280;10032;51.386;12.516;2023-04-08T12:30:00;100923.19;;;12.38;100.00
19748;BME280;10032;51.386;12.516;2023-04-08T12:32:26;100922.03;;;12.34;100.00
19748;BME280;10032;51.386;12.516;2023-04-08T12:34:52;100925.88;;;12.10;100.00
19748;BME280;10032;51.386;12.516;2023-04-08T12:37:18;100925.06;;;12.10;100.00
19748;BME280;10032;51.386;12.516;2023-04-08T12:39:45;100920.44;;;12.10;100.00
19748;BME280;10032;51.386;12.516;2023-04-08T12:42:10;100927.25;;;12.24;100.00
19748;BME280;10032;51.386;12.516;2023-04-08T12:44:35;100926.28;;;12.30;100.00
19748;BME280;10032;51.386;12.516;2023-04-08T12:47:01;100919.66;;;12.26;100.00
19748;BME280;10032;51.386;12.516;2023-04-08T12:49:26;100920.69;;;12.48;100.00
19748;BME280;10032;51.386;12.516;2023-04-08T12:51:52;100924.63;;;12.29;100.00